Perry, IA

4:36 AM CST on February 23, 2017 (GMT -0600)
Perry Municipal

Weather History for KPRO - January, 2014

Change the Weather History Date:

Tuesday, January 14, 2014

  Actual Average Record
Temperature  
Mean Temperature 30 °F -  
Max Temperature 41 °F 28 °F 59 °F (1987)
Min Temperature 17 °F 8 °F -31 °F (1957)
Degree Days  
Heating Degree Days 36    
Moisture  
Dew Point 18 °F    
Average Humidity 63    
Maximum Humidity 81    
Minimum Humidity 47    
Precipitation  
Precipitation 0.00 in - - ()
Sea Level Pressure  
Sea Level Pressure 29.92 in    
Wind  
Wind Speed 21 mph (NW)    
Max Wind Speed 32 mph    
Max Gust Speed 43 mph    
Visibility 10 miles    
Events Snow    
Averages and records for this station are not official NWS values.
T = Trace of Precipitation, MM = Missing Value Source: NWS Daily Summary

Daily Weather History Graph

Daily Weather History Graph

Search for Another Location

Airport or City:

Trip Planner

Search our weather history database for the weather conditions in past years. The results will help you decide how hot, cold, wet, or windy it might be!

Date:

Astronomy

Jan. 14, 2014 Rise Set
Actual Time 7:42 AM CST 5:09 PM CST
Civil Twilight 7:11 AM CST 5:40 PM CST
Nautical Twilight 6:36 AM CST 6:14 PM CST
Astronomical Twilight 6:03 AM CST 6:48 PM CST
Moon 4:16 PM CST (1/14) 6:16 AM CST (1/14)
Length of Visible Light 10h 29m
Length of Day
9h 27m
Waxing Gibbous, 98% of the Moon is Illuminated
Jan 14
Waxing Gibbous
Jan 15
Full
Jan 23
Last Quarter
Jan 30
New
Feb 6
First Quarter

Hourly Weather History & Observations

Time (CST) Temp. Windchill Dew Point Humidity Pressure Visibility Wind Dir Wind Speed Gust Speed Precip Events Conditions
12:15 AM 33.1 °F 23.4 °F 27.9 °F 81% 29.60 in 10.0 mi SW 13.8 mph - N/A   Clear
12:35 AM 33.4 °F 24.3 °F 27.9 °F 80% 29.60 in 10.0 mi SW 12.7 mph - N/A   Mostly Cloudy
12:55 AM 34.0 °F 25.0 °F 28.2 °F 79% 29.59 in 10.0 mi SW 12.7 mph - N/A   Overcast
1:15 AM 34.7 °F 25.9 °F 28.4 °F 78% 29.58 in 10.0 mi SW 12.7 mph - N/A   Overcast
1:35 AM 35.6 °F 28.0 °F 28.6 °F 76% 29.58 in 10.0 mi SW 10.4 mph - N/A   Overcast
1:55 AM 36.1 °F 27.3 °F 28.9 °F 75% 29.58 in 10.0 mi SW 13.8 mph - N/A   Light Drizzle
2:15 AM 35.8 °F 27.3 °F 29.5 °F 78% 29.58 in 10.0 mi SW 12.7 mph - N/A   Light Drizzle
2:55 AM 37.9 °F 28.9 °F 31.3 °F 77% 29.59 in 10.0 mi WSW 16.1 mph - N/A   Overcast
3:35 AM 39.0 °F 30.3 °F 32.0 °F 76% 29.59 in 10.0 mi West 16.1 mph - N/A   Overcast
3:55 AM 39.2 °F 29.8 °F 32.0 °F 75% 29.60 in 10.0 mi West 18.4 mph - N/A   Overcast
4:15 AM 40.1 °F 30.7 °F 32.5 °F 74% 29.62 in 10.0 mi WNW 19.6 mph 28.8 mph N/A   Overcast
4:35 AM 41.0 °F 30.5 °F 32.2 °F 71% 29.64 in 10.0 mi NW 26.5 mph 38.0 mph N/A   Overcast
4:55 AM 39.7 °F 28.5 °F 31.1 °F 71% 29.66 in 10.0 mi NW 27.6 mph 34.5 mph N/A   Overcast
5:15 AM 38.5 °F 27.1 °F 29.3 °F 70% 29.69 in 10.0 mi NW 26.5 mph 42.6 mph N/A   Mostly Cloudy
5:35 AM 36.9 °F 24.9 °F 27.5 °F 69% 29.71 in 10.0 mi NW 26.5 mph 36.8 mph N/A   Scattered Clouds
5:55 AM 36.5 °F 24.2 °F 26.4 °F 67% 29.72 in 10.0 mi NW 27.6 mph 34.5 mph N/A   Clear
6:15 AM 35.6 °F 24.2 °F 26.4 °F 69% 29.74 in 10.0 mi NW 21.9 mph 26.5 mph N/A   Scattered Clouds
6:35 AM 34.9 °F 21.1 °F 26.4 °F 71% 29.75 in 10.0 mi NW 32.2 mph 39.1 mph N/A   Mostly Cloudy
6:55 AM 32.9 °F 18.6 °F 24.4 °F 71% 29.77 in 10.0 mi NNW 31.1 mph 40.3 mph N/A   Mostly Cloudy
7:15 AM 32.9 °F 19.3 °F 23.7 °F 69% 29.79 in 10.0 mi NW 27.6 mph 38.0 mph N/A   Overcast
7:35 AM 32.9 °F 20.4 °F 23.2 °F 67% 29.81 in 10.0 mi NNW 23.0 mph 32.2 mph N/A   Overcast
7:36 AM 33.8 °F 21.3 °F 23.0 °F 65% 29.81 in 10.0 mi NW 24.2 mph 32.2 mph N/A   Overcast
7:55 AM 31.6 °F 16.7 °F 21.7 °F 67% 29.83 in 10.0 mi NNW 32.2 mph 42.6 mph N/A   Overcast
8:15 AM 30.2 °F 16.5 °F 20.3 °F 67% 29.85 in 10.0 mi NW 24.2 mph 32.2 mph N/A   Overcast
8:35 AM 29.8 °F 15.7 °F 19.4 °F 65% 29.86 in 10.0 mi NW 25.3 mph 36.8 mph N/A   Mostly Cloudy
8:55 AM 30.0 °F 15.7 °F 19.4 °F 65% 29.87 in 10.0 mi NNW 26.5 mph 41.4 mph N/A   Mostly Cloudy
8:56 AM 30.2 °F 15.9 °F 19.4 °F 64% 29.87 in 10.0 mi NW 26.5 mph 41.4 mph N/A   Mostly Cloudy
9:15 AM 30.2 °F 15.7 °F 18.3 °F 61% 29.88 in 10.0 mi NNW 27.6 mph 41.4 mph N/A   Mostly Cloudy
9:35 AM 30.7 °F 16.7 °F 18.5 °F 60% 29.89 in 10.0 mi NW 26.5 mph 35.7 mph N/A   Mostly Cloudy
9:36 AM 30.2 °F 15.9 °F 17.6 °F 60% 29.89 in 10.0 mi NW 26.5 mph 35.7 mph N/A   Mostly Cloudy
9:55 AM 31.6 °F 18.1 °F 19.0 °F 60% 29.90 in 10.0 mi NW 25.3 mph 39.1 mph N/A   Mostly Cloudy
10:15 AM 32.0 °F 20.1 °F 20.1 °F 62% 29.91 in 10.0 mi NW 19.6 mph 27.6 mph N/A   Overcast
10:35 AM 31.1 °F 17.4 °F 17.1 °F 56% 29.93 in 10.0 mi NW 25.3 mph 33.4 mph N/A   Overcast
10:55 AM 30.7 °F 16.9 °F 16.7 °F 56% 29.94 in 10.0 mi NW 25.3 mph 36.8 mph N/A   Overcast
10:56 AM 30.2 °F 16.2 °F 17.6 °F 60% 29.94 in 10.0 mi WNW 25.3 mph 36.8 mph N/A   Overcast
11:15 AM 30.2 °F 16.5 °F 16.7 °F 57% 29.96 in 10.0 mi NW 24.2 mph 38.0 mph N/A   Overcast
11:35 AM 29.5 °F 15.0 °F 14.7 °F 54% 29.96 in 10.0 mi NW 26.5 mph 36.8 mph N/A   Overcast
11:55 AM 29.1 °F 13.7 °F 12.2 °F 49% 29.96 in 10.0 mi NW 29.9 mph 38.0 mph N/A   Overcast
12:15 PM 28.6 °F 14.3 °F 11.7 °F 49% 29.96 in 10.0 mi NW 24.2 mph 38.0 mph N/A   Overcast
12:35 PM 28.6 °F 12.7 °F 10.4 °F 47% 29.97 in 10.0 mi NW 31.1 mph 38.0 mph N/A   Overcast
12:55 PM 28.4 °F 13.0 °F 10.8 °F 48% 29.97 in 10.0 mi NW 28.8 mph 38.0 mph N/A   Overcast
1:15 PM 28.4 °F 15.4 °F 10.6 °F 47% 29.98 in 10.0 mi NW 19.6 mph 34.5 mph N/A   Overcast
1:35 PM 28.8 °F 14.9 °F 10.9 °F 47% 29.98 in 10.0 mi NW 23.0 mph 34.5 mph N/A   Overcast
1:55 PM 28.9 °F 15.4 °F 11.3 °F 48% 29.99 in 10.0 mi NW 21.9 mph 29.9 mph N/A   Overcast
2:15 PM 28.4 °F 14.4 °F 11.3 °F 49% 29.99 in 10.0 mi NW 23.0 mph 35.7 mph N/A   Overcast
2:35 PM 28.2 °F 13.0 °F 12.9 °F 53% 30.00 in 10.0 mi NW 27.6 mph 35.7 mph N/A   Overcast
2:55 PM 27.9 °F 12.5 °F 12.0 °F 52% 30.01 in 10.0 mi NW 27.6 mph 40.3 mph N/A   Overcast
3:15 PM 27.5 °F 12.0 °F 11.7 °F 51% 30.03 in 10.0 mi NW 27.6 mph 40.3 mph N/A   Overcast
3:35 PM 27.3 °F 11.5 °F 12.2 °F 53% 30.04 in 10.0 mi NW 28.8 mph 35.7 mph N/A   Overcast
3:55 PM 26.6 °F 11.1 °F 13.1 °F 57% 30.06 in 10.0 mi NW 26.5 mph 34.5 mph N/A   Overcast
4:15 PM 25.7 °F 9.3 °F 13.8 °F 61% 30.07 in 7.0 mi NW 28.8 mph 38.0 mph N/A Snow Light Snow
4:35 PM 24.8 °F 10.3 °F 16.7 °F 71% 30.08 in 7.0 mi NNW 20.7 mph 33.4 mph N/A Snow Light Snow
4:55 PM 24.6 °F 9.7 °F 15.8 °F 69% 30.09 in 10.0 mi NNW 21.9 mph 33.4 mph N/A   Overcast
5:15 PM 24.8 °F 10.0 °F 14.9 °F 66% 30.09 in 10.0 mi NW 21.9 mph - N/A   Overcast
5:35 PM 24.6 °F 9.1 °F 12.0 °F 59% 30.10 in 10.0 mi NW 24.2 mph 34.5 mph N/A   Overcast
5:55 PM 24.4 °F 9.9 °F 11.7 °F 58% 30.11 in 10.0 mi NW 20.7 mph 26.5 mph N/A   Overcast
6:15 PM 24.3 °F 8.3 °F 11.1 °F 57% 30.12 in 10.0 mi NNW 25.3 mph 28.8 mph N/A   Overcast
6:35 PM 23.9 °F 8.4 °F 11.8 °F 60% 30.12 in 10.0 mi NNW 23.0 mph 31.1 mph N/A   Overcast
6:55 PM 23.7 °F 7.5 °F 11.1 °F 59% 30.13 in 10.0 mi NW 25.3 mph 36.8 mph N/A   Overcast
7:15 PM 23.2 °F 7.5 °F 10.9 °F 60% 30.13 in 10.0 mi NNW 23.0 mph 28.8 mph N/A   Overcast
7:35 PM 22.8 °F 8.1 °F 11.3 °F 61% 30.14 in 10.0 mi NW 19.6 mph - N/A   Overcast
7:55 PM 22.6 °F 8.7 °F 11.7 °F 63% 30.14 in 10.0 mi NNW 17.3 mph 25.3 mph N/A   Overcast
8:15 PM 22.5 °F 7.6 °F 10.9 °F 61% 30.13 in 10.0 mi NNW 19.6 mph 27.6 mph N/A   Overcast
8:35 PM 22.3 °F 6.6 °F 10.9 °F 62% 30.13 in 10.0 mi NNW 21.9 mph 28.8 mph N/A   Overcast
8:55 PM 22.1 °F 7.2 °F 11.7 °F 64% 30.14 in 10.0 mi NNW 19.6 mph 25.3 mph N/A   Overcast
9:15 PM 21.6 °F 6.5 °F 12.0 °F 67% 30.14 in 10.0 mi NNW 19.6 mph 24.2 mph N/A   Overcast
9:35 PM 21.6 °F 5.0 °F 11.5 °F 65% 30.14 in 10.0 mi NNW 24.2 mph 29.9 mph N/A   Overcast
9:55 PM 20.3 °F 5.2 °F 10.2 °F 65% 30.16 in 10.0 mi NNW 18.4 mph 25.3 mph N/A   Overcast
10:15 PM 19.2 °F 4.3 °F 9.3 °F 65% 30.16 in 10.0 mi North 17.3 mph 20.7 mph N/A   Overcast
10:35 PM 18.5 °F 4.3 °F 9.5 °F 68% 30.16 in 10.0 mi NNW 15.0 mph - N/A   Overcast
10:55 PM 19.0 °F 4.0 °F 9.3 °F 66% 30.16 in 10.0 mi NNW 17.3 mph 24.2 mph N/A   Overcast
11:15 PM 18.5 °F 3.3 °F 8.6 °F 65% 30.16 in 10.0 mi NNW 17.3 mph 20.7 mph N/A   Overcast
11:35 PM 18.1 °F 1.6 °F 8.1 °F 65% 30.16 in 10.0 mi NNW 20.7 mph 27.6 mph N/A   Overcast
11:55 PM 17.6 °F 1.3 °F 7.7 °F 65% 30.16 in 10.0 mi NNW 19.6 mph 25.3 mph N/A   Overcast